Time;durP1;ratioP1;P1;durP2;ratioP2;P2;SDS_P1;SDS_P2;PMS_P1;PMS_P2;Temp;Humidity;BMP_temperature;BMP_pressure;BME280_temperature;BME280_humidity;BME280_pressure;Samples;Min_cycle;Max_cycle;Signal;HPM_P1;HPM_P2
2023/07/30 00:01:00;;;;;;;;;;;17.00;99.90;;;;;;2066043;28;19964;-72
2023/07/30 00:02:00;;;;;;;;;;;17.00;99.90;;;;;;2074405;28;19923;-71
2023/07/30 00:03:01;;;;;;;;;;;17.00;99.90;;;;;;2075099;28;20003;-72
2023/07/30 00:04:01;;;;;;;;;;;17.00;99.90;;;;;;2076936;28;19956;-71
2023/07/30 00:05:02;;;;;;;;;;;17.00;99.90;;;;;;2065959;28;19918;-71
2023/07/30 00:06:02;;;;;;;;;;;17.00;99.90;;;;;;2065960;28;19913;-72
2023/07/30 00:07:03;;;;;;;;;;;17.00;99.90;;;;;;2074785;28;20016;-72
2023/07/30 00:08:03;;;;;;;;;;;17.00;99.90;;;;;;2074938;28;19913;-73
2023/07/30 00:09:04;;;;;;;;;;;17.00;99.90;;;;;;2075935;28;19952;-71
2023/07/30 00:10:05;;;;;;;;;;;17.00;99.90;;;;;;2074100;28;19956;-72
2023/07/30 00:11:05;;;;;;;;;;;17.00;99.90;;;;;;2071819;28;19913;-72
2023/07/30 00:12:06;;;;;;;;;;;17.00;99.90;;;;;;2085918;28;20041;-72
2023/07/30 00:13:07;;;;;;;;;;;17.00;99.90;;;;;;2077883;28;19925;-72
2023/07/30 00:14:07;;;;;;;;;;;17.00;99.90;;;;;;2071360;28;19956;-72
2023/07/30 00:15:08;;;;;;;;;;;17.00;99.90;;;;;;2074826;28;19921;-71
2023/07/30 00:16:08;;;;;;;;;;;17.00;99.90;;;;;;2075018;28;19944;-72
2023/07/30 00:17:09;;;;;;;;;;;17.00;99.90;;;;;;2075060;28;19917;-71
2023/07/30 00:18:09;;;;;;;;;;;16.90;99.90;;;;;;2076730;28;19920;-72
2023/07/30 00:19:10;;;;;;;;;;;16.90;99.90;;;;;;2074911;28;20364;-72
2023/07/30 00:20:11;;;;;;;;;;;16.90;99.90;;;;;;2084806;28;19912;-72
2023/07/30 00:21:11;;;;;;;;;;;16.80;99.90;;;;;;2088040;28;19929;-72
2023/07/30 00:22:12;;;;;;;;;;;16.80;99.90;;;;;;2069321;28;19928;-72
2023/07/30 00:23:13;;;;;;;;;;;16.80;99.90;;;;;;2067568;28;20312;-73
2023/07/30 00:24:13;;;;;;;;;;;16.80;99.90;;;;;;2076100;28;20441;-72
2023/07/30 00:25:14;;;;;;;;;;;16.80;99.90;;;;;;2075563;28;19921;-72
2023/07/30 00:26:14;;;;;;;;;;;16.80;99.90;;;;;;2077479;28;19917;-73
2023/07/30 00:27:15;;;;;;;;;;;16.80;99.90;;;;;;2076396;28;19996;-73
2023/07/30 00:28:15;;;;;;;;;;;16.80;99.90;;;;;;2076345;28;19921;-71
2023/07/30 00:29:16;;;;;;;;;;;16.70;99.90;;;;;;2087652;28;20176;-71
2023/07/30 00:30:17;;;;;;;;;;;16.70;99.90;;;;;;2079584;28;20424;-73
2023/07/30 00:31:17;;;;;;;;;;;16.70;99.90;;;;;;2075588;28;19999;-73
2023/07/30 00:32:18;;;;;;;;;;;16.70;99.90;;;;;;2076424;28;19916;-72
2023/07/30 00:33:18;;;;;;;;;;;16.70;99.90;;;;;;2073521;28;19917;-72
2023/07/30 00:34:19;;;;;;;;;;;16.70;99.90;;;;;;2076122;28;19963;-72
2023/07/30 00:35:20;;;;;;;;;;;16.70;99.90;;;;;;2076254;28;20503;-72
2023/07/30 00:36:20;;;;;;;;;;;16.70;99.90;;;;;;2077307;28;19913;-72
2023/07/30 00:37:21;;;;;;;;;;;16.70;99.90;;;;;;2075289;28;20055;-72
2023/07/30 00:38:21;;;;;;;;;;;16.70;99.90;;;;;;2075624;28;19909;-72
2023/07/30 00:39:22;;;;;;;;;;;16.70;99.90;;;;;;2087727;28;19999;-72
2023/07/30 00:40:22;;;;;;;;;;;16.70;99.90;;;;;;2087433;28;19924;-71
2023/07/30 00:41:23;;;;;;;;;;;16.60;99.90;;;;;;2077337;28;19925;-72
2023/07/30 00:42:23;;;;;;;;;;;16.60;99.90;;;;;;2077511;28;20477;-71
2023/07/30 00:43:24;;;;;;;;;;;16.70;99.90;;;;;;2077721;28;20004;-71
2023/07/30 00:44:24;;;;;;;;;;;16.70;99.90;;;;;;2077806;28;20015;-71
2023/07/30 00:45:25;;;;;;;;;;;16.70;99.90;;;;;;2069123;28;19928;-72
2023/07/30 00:46:25;;;;;;;;;;;16.70;99.90;;;;;;2075629;28;19924;-72
2023/07/30 00:47:26;;;;;;;;;;;16.70;99.90;;;;;;2087056;28;20007;-72
2023/07/30 00:48:27;;;;;;;;;;;16.70;99.90;;;;;;2087214;28;20383;-72
2023/07/30 00:49:27;;;;;;;;;;;16.60;99.90;;;;;;2080034;28;20388;-73
2023/07/30 00:50:29;;;;;;;;;;;16.60;99.90;;;;;;2073248;28;19925;-72
2023/07/30 00:51:31;;;;;;;;;;;16.60;99.90;;;;;;2063600;28;19925;-73
2023/07/30 00:52:32;;;;;;;;;;;16.60;99.90;;;;;;2067320;28;20367;-72
2023/07/30 00:53:32;;;;;;;;;;;16.60;99.90;;;;;;2067411;28;19921;-73
2023/07/30 00:54:33;;;;;;;;;;;16.60;99.90;;;;;;2067163;28;19921;-71
2023/07/30 00:55:34;;;;;;;;;;;16.60;99.90;;;;;;2067663;28;19944;-72
2023/07/30 00:56:35;;;;;;;;;;;16.60;99.90;;;;;;2075179;28;19967;-71
2023/07/30 00:57:36;;;;;;;;;;;16.60;99.90;;;;;;2073125;28;20189;-72
2023/07/30 00:58:37;;;;;;;;;;;16.50;99.90;;;;;;2071840;28;20439;-73
2023/07/30 00:59:38;;;;;;;;;;;16.50;99.90;;;;;;2070728;28;19949;-73
2023/07/30 01:00:39;;;;;;;;;;;16.50;99.90;;;;;;2067236;28;19922;-71
2023/07/30 01:01:41;;;;;;;;;;;16.50;99.90;;;;;;2077343;28;20372;-71
2023/07/30 01:02:42;;;;;;;;;;;16.50;99.90;;;;;;2076208;28;19913;-71
2023/07/30 01:03:44;;;;;;;;;;;16.50;99.90;;;;;;2075275;28;19924;-73
2023/07/30 01:04:45;;;;;;;;;;;16.50;99.90;;;;;;2067210;28;19917;-72
2023/07/30 01:05:45;;;;;;;;;;;16.50;99.90;;;;;;2077216;28;19921;-72
2023/07/30 01:06:46;;;;;;;;;;;16.40;99.90;;;;;;2076160;28;20406;-72
2023/07/30 01:07:47;;;;;;;;;;;16.50;99.90;;;;;;2075261;28;19921;-72
2023/07/30 01:08:47;;;;;;;;;;;16.40;99.90;;;;;;2059671;28;19940;-72
2023/07/30 01:09:48;;;;;;;;;;;16.40;99.90;;;;;;2068986;28;20304;-71
2023/07/30 01:10:49;;;;;;;;;;;16.40;99.90;;;;;;2065527;28;19918;-72
2023/07/30 01:11:51;;;;;;;;;;;16.40;99.90;;;;;;2065664;28;19950;-71
2023/07/30 01:12:52;;;;;;;;;;;16.50;99.90;;;;;;2075284;28;19917;-71
2023/07/30 01:13:54;;;;;;;;;;;16.50;99.90;;;;;;2075355;28;19924;-71
2023/07/30 01:14:55;;;;;;;;;;;16.50;99.90;;;;;;2076158;28;19939;-72
2023/07/30 01:15:56;;;;;;;;;;;16.50;99.90;;;;;;2069359;28;19917;-72
2023/07/30 01:16:57;;;;;;;;;;;16.50;99.90;;;;;;2075709;28;20681;-72
2023/07/30 01:17:58;;;;;;;;;;;16.50;99.90;;;;;;2076364;28;19913;-72
2023/07/30 01:19:01;;;;;;;;;;;16.50;99.90;;;;;;2076748;28;19967;-72
2023/07/30 01:20:01;;;;;;;;;;;16.40;99.90;;;;;;2079282;28;19948;-72
2023/07/30 01:21:02;;;;;;;;;;;16.40;99.90;;;;;;2076308;28;20097;-72
2023/07/30 01:22:02;;;;;;;;;;;16.40;99.90;;;;;;2075754;28;19959;-72
2023/07/30 01:23:03;;;;;;;;;;;16.40;99.90;;;;;;2068180;28;19928;-71
2023/07/30 01:24:04;;;;;;;;;;;16.40;99.90;;;;;;2070586;28;20331;-72
2023/07/30 01:25:04;;;;;;;;;;;16.40;99.90;;;;;;2068991;28;20124;-72
2023/07/30 01:26:08;;;;;;;;;;;16.40;99.90;;;;;;2077160;28;19917;-72
2023/07/30 01:27:13;;;;;;;;;;;16.40;99.90;;;;;;2076282;28;19956;-72
2023/07/30 01:28:17;;;;;;;;;;;16.40;99.90;;;;;;2075100;28;19923;-73
2023/07/30 01:29:38;;;;;;;;;;;16.30;99.90;;;;;;2075352;28;20410;-72
2023/07/30 01:30:41;;;;;;;;;;;16.30;99.90;;;;;;2074934;28;19960;-73
2023/07/30 01:31:42;;;;;;;;;;;16.30;99.90;;;;;;2075971;28;19921;-73
2023/07/30 01:32:43;;;;;;;;;;;16.30;99.90;;;;;;2075417;28;19921;-73
2023/07/30 01:33:49;;;;;;;;;;;16.30;99.90;;;;;;2075391;28;19909;-72
2023/07/30 01:34:51;;;;;;;;;;;16.30;99.90;;;;;;2077846;28;19967;-72
2023/07/30 01:35:53;;;;;;;;;;;16.30;99.90;;;;;;2073426;28;19928;-72
2023/07/30 01:36:54;;;;;;;;;;;16.30;99.90;;;;;;2076047;28;19964;-72
2023/07/30 01:37:55;;;;;;;;;;;16.30;99.90;;;;;;2075506;28;19989;-72
2023/07/30 01:38:56;;;;;;;;;;;16.30;99.90;;;;;;2075708;28;20394;-74
2023/07/30 01:39:57;;;;;;;;;;;16.30;99.90;;;;;;2076068;28;20047;-73
2023/07/30 01:40:57;;;;;;;;;;;16.20;99.90;;;;;;2068842;28;19994;-73
2023/07/30 01:41:58;;;;;;;;;;;16.30;99.90;;;;;;2074517;28;19983;-72
2023/07/30 01:42:58;;;;;;;;;;;16.30;99.90;;;;;;2075903;28;19917;-72
2023/07/30 01:43:59;;;;;;;;;;;16.30;99.90;;;;;;2070498;28;20008;-73
2023/07/30 01:45:00;;;;;;;;;;;16.20;99.90;;;;;;2077148;28;19917;-73
2023/07/30 01:46:00;;;;;;;;;;;16.30;99.90;;;;;;2075233;28;20504;-71
2023/07/30 01:47:01;;;;;;;;;;;16.20;99.90;;;;;;2059044;28;19922;-73
2023/07/30 01:48:02;;;;;;;;;;;16.20;99.90;;;;;;2067417;28;20092;-73
2023/07/30 01:49:02;;;;;;;;;;;16.20;99.90;;;;;;2073177;28;19913;-73
2023/07/30 01:50:03;;;;;;;;;;;16.20;99.90;;;;;;2079291;28;19980;-73
2023/07/30 01:51:04;;;;;;;;;;;16.20;99.90;;;;;;2073896;28;19917;-73
2023/07/30 01:52:04;;;;;;;;;;;16.20;99.90;;;;;;2066605;28;20149;-71
2023/07/30 01:53:05;;;;;;;;;;;16.20;99.90;;;;;;2074815;28;19917;-71
2023/07/30 01:54:05;;;;;;;;;;;16.20;99.90;;;;;;2077472;28;19970;-71
2023/07/30 01:55:06;;;;;;;;;;;16.20;99.90;;;;;;2074954;28;20445;-72
2023/07/30 01:56:06;;;;;;;;;;;16.20;99.90;;;;;;2068031;28;20119;-72
2023/07/30 01:57:07;;;;;;;;;;;16.20;99.90;;;;;;2062038;28;20414;-73
2023/07/30 01:58:08;;;;;;;;;;;16.20;99.90;;;;;;2068608;28;20025;-71
2023/07/30 01:59:08;;;;;;;;;;;16.20;99.90;;;;;;2066167;28;20004;-71
2023/07/30 02:00:09;;;;;;;;;;;16.20;99.90;;;;;;2066610;28;19918;-72
2023/07/30 02:01:10;;;;;;;;;;;16.20;99.90;;;;;;2074799;28;19917;-71
2023/07/30 02:02:11;;;;;;;;;;;16.20;99.90;;;;;;2075544;28;20343;-72
2023/07/30 02:03:11;;;;;;;;;;;16.20;99.90;;;;;;2075482;28;20359;-72
2023/07/30 02:04:12;;;;;;;;;;;16.20;99.90;;;;;;2075165;28;19948;-73
2023/07/30 02:05:12;;;;;;;;;;;16.20;99.90;;;;;;2068613;28;19949;-73
2023/07/30 02:06:15;;;;;;;;;;;16.20;99.90;;;;;;2074757;28;19980;-74
2023/07/30 02:07:15;;;;;;;;;;;16.20;99.90;;;;;;2074969;28;20007;-73
2023/07/30 02:08:16;;;;;;;;;;;16.20;99.90;;;;;;2066480;28;19913;-73
2023/07/30 02:09:16;;;;;;;;;;;16.20;99.90;;;;;;2068605;28;19917;-72
2023/07/30 02:10:17;;;;;;;;;;;16.20;99.90;;;;;;2071111;28;19921;-73
2023/07/30 02:11:17;;;;;;;;;;;16.20;99.90;;;;;;2071228;28;20029;-73
2023/07/30 02:12:18;;;;;;;;;;;16.20;99.90;;;;;;2074655;28;20496;-73
2023/07/30 02:13:18;;;;;;;;;;;16.20;99.90;;;;;;2068622;28;19917;-73
2023/07/30 02:14:19;;;;;;;;;;;16.20;99.90;;;;;;2066576;28;20395;-74
2023/07/30 02:15:22;;;;;;;;;;;16.20;99.90;;;;;;2074987;28;19917;-70
2023/07/30 02:16:22;;;;;;;;;;;16.20;99.90;;;;;;2075620;28;19921;-72
2023/07/30 02:17:23;;;;;;;;;;;16.20;99.90;;;;;;2077639;28;20021;-72
2023/07/30 02:18:23;;;;;;;;;;;16.20;99.90;;;;;;2074410;28;19917;-72
2023/07/30 02:19:24;;;;;;;;;;;16.20;99.90;;;;;;2067706;28;19925;-72
2023/07/30 02:20:24;;;;;;;;;;;16.20;99.90;;;;;;2067743;28;19914;-73
2023/07/30 02:21:25;;;;;;;;;;;16.20;99.90;;;;;;2074773;28;19924;-73
2023/07/30 02:22:25;;;;;;;;;;;16.20;99.90;;;;;;2068397;28;20408;-73
2023/07/30 02:23:26;;;;;;;;;;;16.20;99.90;;;;;;2058606;28;19917;-73
2023/07/30 02:24:27;;;;;;;;;;;16.20;99.90;;;;;;2069812;28;19925;-73
2023/07/30 02:25:28;;;;;;;;;;;16.10;99.90;;;;;;2085952;28;20298;-73
2023/07/30 02:26:28;;;;;;;;;;;16.10;99.90;;;;;;2066560;28;20319;-73
2023/07/30 02:27:29;;;;;;;;;;;16.10;99.90;;;;;;2068324;28;19947;-73
2023/07/30 02:28:29;;;;;;;;;;;16.20;99.90;;;;;;2074622;28;20395;-73
2023/07/30 02:29:31;;;;;;;;;;;16.20;99.90;;;;;;2066460;28;19917;-73
2023/07/30 02:30:32;;;;;;;;;;;16.20;99.90;;;;;;2074696;28;20028;-73
2023/07/30 02:31:33;;;;;;;;;;;16.20;99.90;;;;;;2077257;28;20310;-73
2023/07/30 02:32:33;;;;;;;;;;;16.20;99.90;;;;;;2075360;28;19921;-73
2023/07/30 02:33:34;;;;;;;;;;;16.20;99.90;;;;;;2075232;28;19940;-73
2023/07/30 02:34:34;;;;;;;;;;;16.20;99.90;;;;;;2074651;28;19947;-73
2023/07/30 02:35:35;;;;;;;;;;;16.30;99.90;;;;;;2068450;28;20286;-73
2023/07/30 02:36:35;;;;;;;;;;;16.30;99.90;;;;;;2074382;28;20323;-73
2023/07/30 02:37:36;;;;;;;;;;;16.20;99.90;;;;;;2075593;28;20549;-73
2023/07/30 02:38:36;;;;;;;;;;;16.20;99.90;;;;;;2075817;28;20400;-73
2023/07/30 02:39:37;;;;;;;;;;;16.20;99.90;;;;;;2078394;28;20263;-73
2023/07/30 02:40:37;;;;;;;;;;;16.20;99.90;;;;;;2068152;28;20024;-73
2023/07/30 02:41:38;;;;;;;;;;;16.20;99.90;;;;;;2075996;28;19925;-73
2023/07/30 02:42:38;;;;;;;;;;;16.20;99.90;;;;;;2075648;28;19913;-73
2023/07/30 02:43:39;;;;;;;;;;;16.20;99.90;;;;;;2076226;28;19967;-73
2023/07/30 02:44:39;;;;;;;;;;;16.20;99.90;;;;;;2076942;28;19913;-73
2023/07/30 02:45:40;;;;;;;;;;;16.20;99.90;;;;;;2075243;28;19917;-73
2023/07/30 02:46:41;;;;;;;;;;;16.20;99.90;;;;;;2074999;28;20509;-73
2023/07/30 02:47:41;;;;;;;;;;;16.30;99.90;;;;;;2066207;28;19924;-73
2023/07/30 02:48:42;;;;;;;;;;;16.30;99.90;;;;;;2063857;28;20128;-73
2023/07/30 02:49:42;;;;;;;;;;;16.30;99.90;;;;;;2058051;28;20363;-73
2023/07/30 02:50:43;;;;;;;;;;;16.30;99.90;;;;;;2074467;28;19921;-73
2023/07/30 02:51:48;;;;;;;;;;;16.30;99.90;;;;;;2075545;28;20251;-73
2023/07/30 02:52:49;;;;;;;;;;;16.30;99.90;;;;;;2083479;28;19995;-73
2023/07/30 02:53:52;;;;;;;;;;;16.30;99.90;;;;;;2076657;28;19917;-70
2023/07/30 02:54:52;;;;;;;;;;;16.40;99.90;;;;;;2075354;28;19929;-73
2023/07/30 02:55:53;;;;;;;;;;;16.40;99.90;;;;;;2075707;28;20395;-73
2023/07/30 02:56:53;;;;;;;;;;;16.40;99.90;;;;;;2069434;28;19956;-73
2023/07/30 02:57:54;;;;;;;;;;;16.40;99.90;;;;;;2071783;28;19917;-73
2023/07/30 02:58:54;;;;;;;;;;;16.50;99.90;;;;;;2075966;28;19973;-73
2023/07/30 02:59:55;;;;;;;;;;;16.50;99.90;;;;;;2066060;28;20041;-74
2023/07/30 03:01:04;;;;;;;;;;;16.50;99.90;;;;;;2069944;28;19928;-73
2023/07/30 03:02:05;;;;;;;;;;;16.50;99.90;;;;;;2068334;28;19928;-75
2023/07/30 03:03:05;;;;;;;;;;;16.50;99.90;;;;;;2061471;28;19964;-79
2023/07/30 03:04:06;;;;;;;;;;;16.50;99.90;;;;;;2077750;28;19920;-74
2023/07/30 03:05:07;;;;;;;;;;;16.50;99.90;;;;;;2068252;28;19917;-74
2023/07/30 03:06:07;;;;;;;;;;;16.50;99.90;;;;;;2074358;28;19918;-68
2023/07/30 03:07:09;;;;;;;;;;;16.50;99.90;;;;;;2074491;28;20449;-71
2023/07/30 03:08:09;;;;;;;;;;;16.50;99.90;;;;;;2074299;28;19917;-71
2023/07/30 03:09:10;;;;;;;;;;;16.60;99.90;;;;;;2077046;28;19956;-70
2023/07/30 03:10:10;;;;;;;;;;;16.50;99.90;;;;;;2073042;28;20399;-70
2023/07/30 03:11:13;;;;;;;;;;;16.50;99.90;;;;;;2075968;28;19928;-70
2023/07/30 03:12:13;;;;;;;;;;;16.50;99.90;;;;;;2066206;28;19964;-70
2023/07/30 03:13:14;;;;;;;;;;;16.60;99.90;;;;;;2074403;28;20417;-71
2023/07/30 03:14:14;;;;;;;;;;;16.60;99.90;;;;;;2074163;28;19920;-70
2023/07/30 03:15:15;;;;;;;;;;;16.60;99.90;;;;;;2067409;28;19917;-70
2023/07/30 03:16:15;;;;;;;;;;;16.60;99.90;;;;;;2068096;28;19957;-70
2023/07/30 03:17:16;;;;;;;;;;;16.60;99.90;;;;;;2074561;28;20118;-68
2023/07/30 03:18:16;;;;;;;;;;;16.60;99.90;;;;;;2074399;28;20260;-69
2023/07/30 03:19:17;;;;;;;;;;;16.60;99.90;;;;;;2076125;28;20350;-69
2023/07/30 03:20:17;;;;;;;;;;;16.60;99.90;;;;;;2074007;28;20011;-69
2023/07/30 03:21:18;;;;;;;;;;;16.60;99.90;;;;;;2074716;28;19917;-69
2023/07/30 03:22:18;;;;;;;;;;;16.60;99.90;;;;;;2074942;28;19919;-70
2023/07/30 03:23:19;;;;;;;;;;;16.60;99.90;;;;;;2074250;28;20414;-70
2023/07/30 03:24:19;;;;;;;;;;;16.70;99.90;;;;;;2066248;28;20015;-69
2023/07/30 03:25:20;;;;;;;;;;;16.70;99.90;;;;;;2076484;28;19917;-69
2023/07/30 03:26:23;;;;;;;;;;;16.70;99.90;;;;;;2077161;28;19941;-70
2023/07/30 03:27:23;;;;;;;;;;;16.70;99.90;;;;;;2066363;28;19914;-69
2023/07/30 03:28:24;;;;;;;;;;;16.70;99.90;;;;;;2066535;28;20460;-69
2023/07/30 03:29:24;;;;;;;;;;;16.70;99.90;;;;;;2063657;28;20012;-70
2023/07/30 03:30:25;;;;;;;;;;;16.70;99.90;;;;;;2074509;28;19917;-69
2023/07/30 03:31:28;;;;;;;;;;;16.70;99.90;;;;;;2075263;28;19931;-69
2023/07/30 03:32:28;;;;;;;;;;;16.70;99.90;;;;;;2074322;28;20024;-69
2023/07/30 03:33:29;;;;;;;;;;;16.70;99.90;;;;;;2074093;28;19913;-69
2023/07/30 03:34:29;;;;;;;;;;;16.70;99.90;;;;;;2076355;28;19978;-69
2023/07/30 03:35:30;;;;;;;;;;;16.70;99.90;;;;;;2074685;28;19928;-68
2023/07/30 03:36:30;;;;;;;;;;;16.70;99.90;;;;;;2074538;28;22503;-69
2023/07/30 03:37:31;;;;;;;;;;;16.70;99.90;;;;;;2074467;28;19917;-69
2023/07/30 03:38:32;;;;;;;;;;;16.70;99.90;;;;;;2074339;28;19924;-69
2023/07/30 03:39:33;;;;;;;;;;;16.70;99.90;;;;;;2076238;28;19934;-69
2023/07/30 03:40:33;;;;;;;;;;;16.70;99.90;;;;;;2075087;28;20406;-70
2023/07/30 03:41:35;;;;;;;;;;;16.70;99.90;;;;;;2074256;28;19949;-69
2023/07/30 03:42:35;;;;;;;;;;;16.70;99.90;;;;;;2066294;28;19917;-69
2023/07/30 03:43:36;;;;;;;;;;;16.70;99.90;;;;;;2064137;28;20435;-70
2023/07/30 03:44:36;;;;;;;;;;;16.70;99.90;;;;;;2066331;28;19918;-69
2023/07/30 03:45:37;;;;;;;;;;;16.70;99.90;;;;;;2074702;28;20433;-69
2023/07/30 03:46:38;;;;;;;;;;;16.70;99.90;;;;;;2075253;28;20540;-70
2023/07/30 03:47:38;;;;;;;;;;;16.80;99.90;;;;;;2075118;28;19927;-70
2023/07/30 03:48:39;;;;;;;;;;;16.80;99.90;;;;;;2076213;28;20354;-69
2023/07/30 03:49:39;;;;;;;;;;;16.80;99.90;;;;;;2066188;28;19921;-69
2023/07/30 03:50:40;;;;;;;;;;;16.80;99.90;;;;;;2066280;28;19913;-69
2023/07/30 03:51:41;;;;;;;;;;;16.80;99.90;;;;;;2068266;28;19925;-69
2023/07/30 03:52:42;;;;;;;;;;;16.80;99.90;;;;;;2063532;28;19924;-69
2023/07/30 03:53:42;;;;;;;;;;;16.80;99.90;;;;;;2066078;28;19968;-69
2023/07/30 03:54:43;;;;;;;;;;;16.80;99.90;;;;;;2074513;28;19921;-69
2023/07/30 03:55:43;;;;;;;;;;;16.80;99.90;;;;;;2075150;28;19913;-69
2023/07/30 03:56:44;;;;;;;;;;;16.80;99.90;;;;;;2066925;28;20144;-70
2023/07/30 03:57:44;;;;;;;;;;;16.80;99.90;;;;;;2069657;28;20423;-70
2023/07/30 03:58:45;;;;;;;;;;;16.80;99.90;;;;;;2087473;28;19916;-69
2023/07/30 03:59:45;;;;;;;;;;;16.80;99.90;;;;;;2087537;28;19916;-69
2023/07/30 04:00:46;;;;;;;;;;;16.90;99.90;;;;;;2077924;28;20194;-69
2023/07/30 04:01:46;;;;;;;;;;;16.90;99.90;;;;;;2064216;28;19926;-69
2023/07/30 04:02:47;;;;;;;;;;;16.90;99.90;;;;;;2067163;28;19921;-69
2023/07/30 04:03:47;;;;;;;;;;;16.90;99.90;;;;;;2076075;28;19917;-69
2023/07/30 04:04:49;;;;;;;;;;;16.90;99.90;;;;;;2075834;28;20324;-71
2023/07/30 04:05:50;;;;;;;;;;;16.90;99.90;;;;;;2075648;28;19919;-69
2023/07/30 04:06:51;;;;;;;;;;;16.90;99.90;;;;;;2078433;28;19913;-69
2023/07/30 04:07:52;;;;;;;;;;;17.00;99.90;;;;;;2075875;28;20864;-72
2023/07/30 04:08:52;;;;;;;;;;;17.00;99.90;;;;;;2067576;28;19922;-69
2023/07/30 04:09:53;;;;;;;;;;;17.00;99.90;;;;;;2072227;28;19917;-69
2023/07/30 04:10:54;;;;;;;;;;;17.00;99.90;;;;;;2073953;28;19917;-71
2023/07/30 04:11:54;;;;;;;;;;;17.00;99.90;;;;;;2064158;28;20449;-69
2023/07/30 04:12:55;;;;;;;;;;;17.00;99.90;;;;;;2075684;28;20132;-70
2023/07/30 04:13:55;;;;;;;;;;;17.00;99.90;;;;;;2075681;28;19960;-68
2023/07/30 04:14:57;;;;;;;;;;;17.00;99.90;;;;;;2063508;28;20408;-68
2023/07/30 04:15:57;;;;;;;;;;;17.00;99.90;;;;;;2075906;28;19917;-68
2023/07/30 04:16:58;;;;;;;;;;;17.00;99.90;;;;;;2077231;28;19917;-69
2023/07/30 04:17:58;;;;;;;;;;;17.00;99.90;;;;;;2078339;28;20391;-69
2023/07/30 04:18:59;;;;;;;;;;;17.00;99.90;;;;;;2076292;28;20368;-69
2023/07/30 04:19:59;;;;;;;;;;;17.00;99.90;;;;;;2075450;28;19920;-69
2023/07/30 04:21:00;;;;;;;;;;;17.00;99.90;;;;;;2077768;28;20340;-70
2023/07/30 04:22:00;;;;;;;;;;;17.10;99.90;;;;;;2076293;28;19942;-69
2023/07/30 04:23:01;;;;;;;;;;;17.10;99.90;;;;;;2075443;28;19913;-69
2023/07/30 04:24:01;;;;;;;;;;;17.10;99.90;;;;;;2075360;28;19921;-70
2023/07/30 04:25:02;;;;;;;;;;;17.10;99.90;;;;;;2077383;28;20431;-70
2023/07/30 04:26:03;;;;;;;;;;;17.10;99.90;;;;;;2076325;28;20217;-69
2023/07/30 04:27:04;;;;;;;;;;;17.20;99.90;;;;;;2075617;28;20277;-70
2023/07/30 04:28:05;;;;;;;;;;;17.20;99.90;;;;;;2067416;28;20004;-70
2023/07/30 04:29:05;;;;;;;;;;;17.20;99.90;;;;;;2069011;28;19917;-69
2023/07/30 04:30:06;;;;;;;;;;;17.30;99.90;;;;;;2067040;28;19921;-69
2023/07/30 04:31:07;;;;;;;;;;;17.30;99.90;;;;;;2067572;28;19921;-69
2023/07/30 04:32:08;;;;;;;;;;;17.30;99.90;;;;;;2075746;28;19917;-69
2023/07/30 04:33:08;;;;;;;;;;;17.30;99.90;;;;;;2075532;28;19960;-70
2023/07/30 04:34:11;;;;;;;;;;;17.40;99.90;;;;;;2071891;28;19914;-69
2023/07/30 04:35:12;;;;;;;;;;;17.40;99.90;;;;;;2077773;28;19928;-69
2023/07/30 04:36:13;;;;;;;;;;;17.40;99.90;;;;;;2075622;28;21779;-70
2023/07/30 04:37:14;;;;;;;;;;;17.40;99.90;;;;;;2067494;28;20016;-69
2023/07/30 04:38:14;;;;;;;;;;;17.40;99.90;;;;;;2075699;28;19920;-70
2023/07/30 04:39:15;;;;;;;;;;;17.40;99.90;;;;;;2077449;28;19920;-69
2023/07/30 04:40:16;;;;;;;;;;;17.50;99.90;;;;;;2059967;28;20340;-69
2023/07/30 04:41:18;;;;;;;;;;;17.40;99.90;;;;;;2067688;28;19921;-69
2023/07/30 04:42:22;;;;;;;;;;;17.40;99.90;;;;;;2080770;28;19913;-69
2023/07/30 04:43:22;;;;;;;;;;;17.40;99.90;;;;;;2082332;28;20034;-69
2023/07/30 04:44:28;;;;;;;;;;;17.40;99.90;;;;;;2082089;28;19955;-69
2023/07/30 04:45:34;;;;;;;;;;;17.40;99.90;;;;;;2087683;28;19928;-69
2023/07/30 04:46:35;;;;;;;;;;;17.40;99.90;;;;;;2075378;28;19917;-69
2023/07/30 04:47:36;;;;;;;;;;;17.40;99.90;;;;;;2074108;28;19917;-69
2023/07/30 04:48:37;;;;;;;;;;;17.40;99.90;;;;;;2081087;28;19996;-69
2023/07/30 04:49:40;;;;;;;;;;;17.40;99.90;;;;;;2067208;28;20011;-70
2023/07/30 04:50:41;;;;;;;;;;;17.50;99.90;;;;;;2062188;28;19953;-69
2023/07/30 04:51:42;;;;;;;;;;;17.50;99.90;;;;;;2065629;28;19914;-69
2023/07/30 04:52:43;;;;;;;;;;;17.50;99.90;;;;;;2071542;28;19921;-70
2023/07/30 04:53:43;;;;;;;;;;;17.60;99.90;;;;;;2077078;28;19917;-70
2023/07/30 04:54:44;;;;;;;;;;;17.70;99.90;;;;;;2075221;28;20233;-70
2023/07/30 04:55:44;;;;;;;;;;;17.90;99.90;;;;;;2075133;28;19975;-69
2023/07/30 04:56:45;;;;;;;;;;;18.10;99.90;;;;;;2075341;28;20007;-70
2023/07/30 04:57:45;;;;;;;;;;;18.40;99.90;;;;;;2077316;28;19983;-70
2023/07/30 04:58:46;;;;;;;;;;;18.70;99.90;;;;;;2075444;28;20092;-70
2023/07/30 04:59:46;;;;;;;;;;;18.80;99.90;;;;;;2075342;28;19960;-69
2023/07/30 05:00:47;;;;;;;;;;;18.90;99.90;;;;;;2067128;28;20095;-69
2023/07/30 05:01:47;;;;;;;;;;;19.00;99.90;;;;;;2075162;28;20336;-69
2023/07/30 05:02:48;;;;;;;;;;;19.00;99.90;;;;;;2076920;28;19917;-69
2023/07/30 05:03:48;;;;;;;;;;;19.20;99.90;;;;;;2075289;28;19932;-69
2023/07/30 05:04:49;;;;;;;;;;;19.30;99.90;;;;;;2075068;28;19939;-69
2023/07/30 05:05:49;;;;;;;;;;;19.60;99.90;;;;;;2067045;28;20015;-69
2023/07/30 05:06:49;;;;;;;;;;;19.90;99.90;;;;;;2077314;28;19921;-69
2023/07/30 05:07:50;;;;;;;;;;;20.30;99.90;;;;;;2075722;28;20344;-69
2023/07/30 05:08:50;;;;;;;;;;;20.70;99.90;;;;;;2075885;28;20370;-69
2023/07/30 05:09:51;;;;;;;;;;;21.20;99.90;;;;;;2075649;28;20068;-69
2023/07/30 05:10:51;;;;;;;;;;;21.50;99.90;;;;;;2071621;28;19913;-70
2023/07/30 05:11:52;;;;;;;;;;;21.70;99.90;;;;;;2075503;28;19913;-69
2023/07/30 05:12:52;;;;;;;;;;;21.90;99.90;;;;;;2075729;28;19913;-69
2023/07/30 05:13:53;;;;;;;;;;;21.90;99.90;;;;;;2075628;28;20024;-69
2023/07/30 05:14:53;;;;;;;;;;;22.00;99.90;;;;;;2077827;28;20526;-69
2023/07/30 05:15:54;;;;;;;;;;;22.20;99.90;;;;;;2075237;28;19967;-70
2023/07/30 05:16:54;;;;;;;;;;;22.40;99.90;;;;;;2075329;28;20472;-69
2023/07/30 05:17:55;;;;;;;;;;;22.60;99.90;;;;;;2075255;28;19924;-69
2023/07/30 05:18:55;;;;;;;;;;;22.90;99.90;;;;;;2075354;28;19921;-69
2023/07/30 05:19:56;;;;;;;;;;;23.10;99.90;;;;;;2076000;28;20015;-69
2023/07/30 05:20:56;;;;;;;;;;;23.30;99.90;;;;;;2077185;28;19967;-68
2023/07/30 05:21:57;;;;;;;;;;;23.50;99.90;;;;;;2077259;28;20051;-69
2023/07/30 05:22:57;;;;;;;;;;;23.40;99.90;;;;;;2079370;28;19914;-69
2023/07/30 05:23:58;;;;;;;;;;;23.20;99.90;;;;;;2075475;28;20108;-69
2023/07/30 05:24:58;;;;;;;;;;;23.10;99.90;;;;;;2077983;28;19924;-69
2023/07/30 05:25:59;;;;;;;;;;;22.90;99.90;;;;;;2075850;28;20415;-70
2023/07/30 05:26:59;;;;;;;;;;;22.70;99.90;;;;;;2075944;28;19952;-69
2023/07/30 05:28:00;;;;;;;;;;;22.60;99.90;;;;;;2075908;28;19944;-68
2023/07/30 05:29:00;;;;;;;;;;;22.30;99.90;;;;;;2076942;28;19979;-68
2023/07/30 05:30:01;;;;;;;;;;;22.20;99.90;;;;;;2068609;28;20372;-71
2023/07/30 05:31:02;;;;;;;;;;;21.90;99.90;;;;;;2075036;28;19921;-68
2023/07/30 05:32:02;;;;;;;;;;;21.70;99.90;;;;;;2075837;28;19913;-71
2023/07/30 05:33:03;;;;;;;;;;;21.50;99.90;;;;;;2077733;28;20225;-71
2023/07/30 05:34:03;;;;;;;;;;;21.30;99.90;;;;;;2074735;28;20395;-70
2023/07/30 05:35:04;;;;;;;;;;;21.20;99.90;;;;;;2066777;28;19917;-71
2023/07/30 05:36:06;;;;;;;;;;;21.00;99.90;;;;;;2074759;28;19917;-70
2023/07/30 05:37:06;;;;;;;;;;;20.90;99.90;;;;;;2074815;28;20299;-71
2023/07/30 05:38:07;;;;;;;;;;;20.80;99.90;;;;;;2074886;28;19964;-70
2023/07/30 05:39:07;;;;;;;;;;;20.60;99.90;;;;;;2077562;28;20295;-70
2023/07/30 05:40:08;;;;;;;;;;;20.40;99.90;;;;;;2075389;28;19917;-70
2023/07/30 05:41:08;;;;;;;;;;;20.30;99.90;;;;;;2074775;28;19979;-70
2023/07/30 05:42:09;;;;;;;;;;;20.20;99.90;;;;;;2077135;28;20007;-70
2023/07/30 05:43:09;;;;;;;;;;;20.10;99.90;;;;;;2075647;28;19998;-71
2023/07/30 05:44:10;;;;;;;;;;;20.00;99.90;;;;;;2075656;28;20388;-70
2023/07/30 05:45:12;;;;;;;;;;;19.90;99.90;;;;;;2074843;28;19964;-70
2023/07/30 05:46:12;;;;;;;;;;;20.00;99.90;;;;;;2074835;28;19951;-71
2023/07/30 05:47:13;;;;;;;;;;;20.00;99.90;;;;;;2076692;28;20012;-70
2023/07/30 05:48:13;;;;;;;;;;;20.00;99.90;;;;;;2074766;28;19917;-71
2023/07/30 05:49:14;;;;;;;;;;;20.00;99.90;;;;;;2075727;28;19925;-71
2023/07/30 05:50:15;;;;;;;;;;;19.90;99.90;;;;;;2066751;28;20099;-70
2023/07/30 05:51:15;;;;;;;;;;;19.90;99.90;;;;;;2068874;28;20008;-70
2023/07/30 05:52:16;;;;;;;;;;;19.90;99.90;;;;;;2075688;28;19965;-69
2023/07/30 05:53:16;;;;;;;;;;;19.80;99.90;;;;;;2075465;28;19951;-69
2023/07/30 05:54:17;;;;;;;;;;;19.80;99.90;;;;;;2074702;28;19923;-71